createdAt,value
2022-10-19T00:00:18.141Z,1.00
2022-10-19T00:02:49.761Z,2.00
2022-10-19T00:05:24.821Z,1.67
2022-10-19T00:07:55.996Z,2.00
2022-10-19T00:10:28.790Z,3.00
2022-10-19T00:13:02.435Z,1.33
2022-10-19T00:15:37.243Z,1.00
2022-10-19T00:18:26.846Z,1.00
2022-10-19T00:21:12.860Z,1.00
2022-10-19T00:23:58.431Z,1.00
2022-10-19T00:26:34.397Z,1.67
2022-10-19T00:29:14.344Z,2.00
2022-10-19T00:34:32.797Z,0.00
2022-10-19T00:37:06.672Z,1.00
2022-10-19T00:39:47.118Z,2.50
2022-10-19T00:42:22.209Z,2.00
2022-10-19T00:48:07.934Z,1.25
2022-10-19T00:50:44.392Z,1.00
2022-10-19T00:53:20.299Z,3.00
2022-10-19T00:56:17.090Z,1.00
2022-10-19T00:58:48.175Z,1.00
2022-10-19T01:01:24.448Z,2.00
2022-10-19T01:03:59.753Z,2.00
2022-10-19T01:06:38.809Z,2.25
2022-10-19T01:12:47.147Z,2.00
2022-10-19T01:15:59.314Z,2.75
2022-10-19T01:18:42.642Z,1.00
2022-10-19T01:21:38.603Z,1.75
2022-10-19T01:24:28.491Z,2.00
2022-10-19T01:27:47.224Z,1.25
2022-10-19T01:30:53.502Z,2.00
2022-10-19T01:34:12.139Z,1.00
2022-10-19T01:36:58.667Z,2.00
2022-10-19T01:39:45.327Z,3.00
2022-10-19T01:42:32.249Z,1.25
2022-10-19T01:48:23.545Z,3.00
2022-10-19T01:51:21.669Z,1.75
2022-10-19T01:54:18.120Z,3.00
2022-10-19T01:56:54.895Z,1.75
2022-10-19T01:59:29.297Z,1.00
2022-10-19T02:02:01.066Z,0.75
2022-10-19T02:04:39.795Z,1.50
2022-10-19T02:07:14.106Z,0.75
2022-10-19T02:09:47.206Z,0.00
2022-10-19T02:12:24.617Z,1.75
2022-10-19T02:14:59.200Z,1.50
2022-10-19T02:17:40.583Z,1.00
2022-10-19T02:20:20.738Z,1.75
2022-10-19T02:22:54.134Z,0.00
2022-10-19T02:25:24.574Z,2.00
2022-10-19T02:27:57.542Z,3.00
2022-10-19T02:30:30.218Z,3.00
2022-10-19T02:33:02.699Z,2.50
2022-10-19T02:35:44.455Z,2.50
2022-10-19T02:38:29.795Z,2.75
2022-10-19T02:41:43.335Z,3.25
2022-10-19T02:44:42.418Z,6.00
2022-10-19T02:47:23.500Z,8.50
2022-10-19T02:50:00.063Z,11.50
2022-10-19T02:53:03.896Z,25.25
2022-10-19T02:55:36.078Z,32.50
2022-10-19T02:58:29.013Z,27.75
2022-10-19T03:01:20.948Z,25.50
2022-10-19T03:04:01.559Z,21.25
2022-10-19T03:06:35.007Z,14.50
2022-10-19T03:09:23.762Z,5.75
2022-10-19T03:11:54.151Z,6.25
2022-10-19T03:14:47.564Z,1.75
2022-10-19T03:17:22.287Z,3.25
2022-10-19T03:20:01.413Z,1.75
2022-10-19T03:22:44.667Z,2.75
2022-10-19T03:25:22.234Z,3.00
2022-10-19T03:28:06.735Z,3.00
2022-10-19T03:30:38.745Z,2.50
2022-10-19T03:33:26.946Z,5.25
2022-10-19T03:36:18.041Z,3.00
2022-10-19T03:38:52.959Z,3.00
2022-10-19T03:41:30.313Z,3.75
2022-10-19T03:44:15.399Z,2.00
2022-10-19T03:46:52.562Z,3.00
2022-10-19T03:49:28.189Z,3.00
2022-10-19T03:52:02.975Z,3.00
2022-10-19T03:54:51.971Z,2.50
2022-10-19T03:57:33.263Z,2.00
2022-10-19T04:00:18.991Z,0.50
2022-10-19T04:02:55.341Z,2.00
2022-10-19T04:05:27.710Z,2.00
2022-10-19T04:08:04.788Z,1.00
2022-10-19T04:10:44.074Z,2.00
2022-10-19T04:13:16.224Z,1.50
2022-10-19T04:15:47.574Z,1.00
2022-10-19T04:18:19.718Z,2.25
2022-10-19T04:20:59.555Z,1.00
2022-10-19T04:23:35.002Z,2.00
2022-10-19T04:26:12.809Z,2.00
2022-10-19T04:28:49.947Z,2.00
2022-10-19T04:31:23.520Z,3.50
2022-10-19T04:33:59.154Z,2.25
2022-10-19T04:36:37.430Z,2.00
2022-10-19T04:39:10.019Z,3.00
2022-10-19T04:41:43.031Z,2.00
2022-10-19T04:44:13.599Z,2.75
2022-10-19T04:46:55.712Z,2.50
2022-10-19T04:49:30.685Z,2.25
2022-10-19T04:52:02.583Z,4.00
2022-10-19T04:54:51.137Z,3.50
2022-10-19T04:57:24.938Z,4.75
2022-10-19T05:03:12.801Z,6.25
2022-10-19T05:05:47.488Z,8.50
2022-10-19T05:08:20.468Z,5.75
2022-10-19T05:10:53.838Z,9.00
2022-10-19T05:13:32.997Z,7.00
2022-10-19T05:19:15.012Z,6.75
2022-10-19T05:22:04.924Z,6.00
2022-10-19T05:24:58.303Z,1.50
2022-10-19T05:27:57.702Z,2.00
2022-10-19T05:30:28.977Z,3.00
2022-10-19T05:33:04.700Z,3.00
2022-10-19T05:35:40.024Z,1.25
2022-10-19T05:38:14.597Z,3.00
2022-10-19T05:40:53.499Z,2.00
2022-10-19T05:43:40.156Z,2.00
2022-10-19T05:46:23.820Z,1.75
2022-10-19T05:49:08.332Z,0.00
2022-10-19T05:52:04.019Z,1.00
2022-10-19T05:54:37.984Z,1.50
2022-10-19T05:57:11.317Z,1.75
2022-10-19T05:59:43.491Z,1.75
2022-10-19T06:02:19.464Z,1.00
2022-10-19T06:04:55.403Z,1.75
2022-10-19T06:07:25.576Z,1.00
2022-10-19T06:09:57.737Z,1.00
2022-10-19T06:12:32.667Z,2.75
2022-10-19T06:15:02.683Z,0.00
2022-10-19T06:17:39.209Z,1.00
2022-10-19T06:20:34.119Z,1.00
2022-10-19T06:23:13.293Z,2.00
2022-10-19T06:25:56.078Z,0.00
2022-10-19T06:28:30.580Z,2.00
2022-10-19T06:31:05.944Z,1.25
2022-10-19T06:33:43.174Z,1.00
2022-10-19T06:36:21.206Z,2.50
2022-10-19T06:38:55.101Z,1.75
2022-10-19T06:41:28.807Z,2.00
2022-10-19T06:44:07.972Z,2.50
2022-10-19T06:46:41.801Z,1.00
2022-10-19T06:49:18.121Z,3.00
2022-10-19T06:54:43.753Z,2.00
2022-10-19T06:57:27.398Z,0.75
2022-10-19T07:00:01.402Z,3.75
2022-10-19T07:02:37.363Z,3.00
2022-10-19T07:05:14.489Z,2.00
2022-10-19T07:07:46.948Z,2.75
2022-10-19T07:10:25.188Z,2.00
2022-10-19T07:13:01.319Z,1.25
2022-10-19T07:15:35.510Z,3.75
2022-10-19T07:18:10.015Z,3.00
2022-10-19T07:20:43.523Z,1.25
2022-10-19T07:23:20.560Z,2.75
2022-10-19T07:26:01.678Z,3.00
2022-10-19T07:28:34.626Z,4.75
2022-10-19T07:31:18.825Z,2.25
2022-10-19T07:33:56.689Z,4.00
2022-10-19T07:36:40.246Z,2.00
2022-10-19T07:39:13.530Z,1.00
2022-10-19T07:41:49.202Z,2.00
2022-10-19T07:44:22.586Z,2.50
2022-10-19T07:46:54.415Z,3.00
2022-10-19T07:49:26.971Z,2.75
2022-10-19T07:52:03.048Z,2.00
2022-10-19T08:00:51.781Z,2.00
2022-10-19T08:06:26.441Z,2.25
2022-10-19T08:09:03.337Z,2.00
2022-10-19T08:11:40.615Z,3.00
2022-10-19T08:14:14.533Z,4.75
2022-10-19T08:19:35.615Z,2.50
2022-10-19T08:22:11.122Z,2.75
2022-10-19T08:24:43.799Z,2.00
2022-10-19T08:27:16.585Z,2.75
2022-10-19T08:29:49.200Z,2.75
2022-10-19T08:32:30.391Z,3.00
2022-10-19T08:35:05.977Z,3.50
2022-10-19T08:37:54.337Z,2.50
2022-10-19T08:40:32.427Z,4.00
2022-10-19T08:43:37.658Z,2.00
2022-10-19T08:46:41.233Z,2.00
2022-10-19T08:49:20.182Z,1.00
2022-10-19T08:52:04.293Z,1.75
2022-10-19T08:55:06.887Z,3.00
2022-10-19T08:58:06.112Z,2.00
2022-10-19T09:00:55.873Z,3.00
2022-10-19T09:04:04.333Z,3.00
2022-10-19T09:07:15.040Z,1.00
2022-10-19T09:10:12.828Z,2.00
2022-10-19T09:13:01.760Z,3.00
2022-10-19T09:15:48.299Z,2.00
2022-10-19T09:18:38.926Z,2.00
2022-10-19T09:21:31.039Z,1.75
2022-10-19T09:25:00.251Z,2.50
2022-10-19T09:27:42.996Z,3.00
2022-10-19T09:30:26.272Z,2.75
2022-10-19T09:33:15.430Z,4.00
2022-10-19T09:35:55.092Z,2.25
2022-10-19T09:38:40.236Z,2.25
2022-10-19T09:41:24.157Z,3.25
2022-10-19T09:43:58.776Z,2.00
2022-10-19T09:47:00.133Z,3.00
2022-10-19T09:49:50.038Z,3.50
2022-10-19T09:52:47.632Z,3.00
2022-10-19T09:55:43.843Z,2.00
2022-10-19T09:58:37.528Z,2.00
2022-10-19T10:01:39.906Z,1.75
2022-10-19T10:04:20.793Z,2.00
2022-10-19T10:06:55.519Z,3.00
2022-10-19T10:09:37.948Z,2.00
2022-10-19T10:12:14.980Z,3.00
2022-10-19T10:14:53.369Z,3.75
2022-10-19T10:17:39.324Z,2.00
2022-10-19T10:20:27.933Z,2.00
2022-10-19T10:23:01.854Z,3.00
2022-10-19T10:25:39.579Z,1.00
2022-10-19T10:28:28.360Z,3.50
2022-10-19T10:31:13.421Z,3.00
2022-10-19T10:33:46.071Z,3.00
2022-10-19T10:36:31.868Z,3.00
2022-10-19T10:39:09.930Z,2.00
2022-10-19T10:41:46.017Z,3.50
2022-10-19T10:44:36.614Z,4.00
2022-10-19T10:47:16.526Z,4.00
2022-10-19T10:49:56.481Z,3.25
2022-10-19T10:52:45.874Z,3.00
2022-10-19T10:55:57.438Z,2.00
2022-10-19T10:59:13.286Z,3.00
2022-10-19T11:02:19.736Z,2.00
2022-10-19T11:05:17.075Z,2.50
2022-10-19T11:07:50.590Z,2.50
2022-10-19T11:11:04.114Z,2.50
2022-10-19T11:14:12.530Z,3.00
2022-10-19T11:16:47.074Z,2.00
2022-10-19T11:19:39.447Z,4.00
2022-10-19T11:22:59.318Z,3.00
2022-10-19T11:25:43.224Z,2.00
2022-10-19T11:29:06.439Z,3.00
2022-10-19T11:32:16.237Z,1.00
2022-10-19T11:35:17.486Z,4.00
2022-10-19T11:38:17.653Z,2.75
2022-10-19T11:41:16.947Z,3.00
2022-10-19T11:44:13.608Z,3.25
2022-10-19T11:47:47.927Z,2.75
2022-10-19T11:51:16.805Z,4.75
2022-10-19T11:54:25.620Z,3.00
2022-10-19T11:57:12.478Z,3.00
2022-10-19T11:59:50.845Z,2.00
2022-10-19T12:03:15.952Z,2.00
2022-10-19T12:06:21.851Z,2.00
2022-10-19T12:09:51.943Z,4.00
2022-10-19T12:12:41.498Z,1.50
2022-10-19T12:15:49.692Z,3.00
2022-10-19T12:18:49.666Z,0.50
2022-10-19T12:21:52.674Z,2.00
2022-10-19T12:24:31.490Z,3.00
2022-10-19T12:27:03.454Z,2.00
2022-10-19T12:30:01.317Z,1.00
2022-10-19T12:32:53.394Z,2.00
2022-10-19T12:35:34.072Z,2.50
2022-10-19T12:38:46.137Z,0.50
2022-10-19T12:41:38.819Z,2.00
2022-10-19T12:44:34.259Z,3.00
2022-10-19T12:47:40.556Z,3.25
2022-10-19T12:50:24.061Z,2.00
2022-10-19T12:52:57.882Z,1.50
2022-10-19T12:55:39.475Z,3.00
2022-10-19T12:58:53.015Z,1.25
2022-10-19T13:01:33.995Z,3.00
2022-10-19T13:04:39.634Z,3.00
2022-10-19T13:07:22.306Z,3.50
2022-10-19T13:13:02.752Z,1.50
2022-10-19T13:15:53.977Z,2.50
2022-10-19T13:19:01.557Z,3.00
2022-10-19T13:22:04.531Z,3.00
2022-10-19T13:24:48.369Z,1.50
2022-10-19T13:30:47.601Z,2.00
2022-10-19T13:33:37.253Z,3.00
2022-10-19T13:36:23.228Z,2.25
2022-10-19T13:39:13.217Z,4.00
2022-10-19T13:42:04.572Z,2.50
2022-10-19T13:44:44.998Z,2.00
2022-10-19T13:47:34.777Z,6.00
2022-10-19T13:50:50.044Z,2.00
2022-10-19T13:53:42.902Z,2.00
2022-10-19T13:59:39.645Z,3.00
2022-10-19T14:02:57.161Z,2.00
2022-10-19T14:05:46.466Z,2.75
2022-10-19T14:08:36.038Z,2.25
2022-10-19T14:14:20.777Z,1.25
2022-10-19T14:17:05.639Z,1.25
2022-10-19T14:19:54.611Z,3.50
2022-10-19T14:23:07.821Z,2.00
2022-10-19T14:25:44.411Z,1.00
2022-10-19T14:28:35.934Z,1.25
2022-10-19T14:31:22.096Z,1.00
2022-10-19T14:34:07.002Z,1.00
2022-10-19T14:36:53.756Z,1.00
2022-10-19T14:39:30.410Z,1.00
2022-10-19T14:42:07.870Z,1.00
2022-10-19T14:44:49.319Z,1.50
2022-10-19T14:47:28.603Z,4.00
2022-10-19T14:50:00.102Z,2.00
2022-10-19T14:52:45.626Z,2.50
2022-10-19T14:55:31.283Z,1.00
2022-10-19T14:58:02.616Z,0.00
2022-10-19T15:00:37.125Z,2.00
2022-10-19T15:03:40.226Z,2.00
2022-10-19T15:06:42.909Z,2.25
2022-10-19T15:09:37.759Z,1.00
2022-10-19T15:12:32.505Z,1.00
2022-10-19T15:15:02.944Z,0.00
2022-10-19T15:17:35.609Z,3.50
2022-10-19T15:20:26.182Z,1.00
2022-10-19T15:23:00.922Z,3.50
2022-10-19T15:25:42.499Z,1.00
2022-10-19T15:28:41.956Z,0.00
2022-10-19T15:31:29.679Z,0.00
2022-10-19T15:34:04.577Z,0.00
2022-10-19T15:36:35.741Z,0.00
2022-10-19T15:39:25.167Z,0.00
2022-10-19T15:42:47.255Z,1.00
2022-10-19T15:45:40.420Z,0.00
2022-10-19T15:48:17.380Z,0.50
2022-10-19T15:50:55.444Z,0.00
2022-10-19T15:53:29.989Z,0.50
2022-10-19T15:58:34.872Z,0.00
2022-10-19T16:01:05.935Z,1.00
2022-10-19T16:03:43.486Z,0.00
2022-10-19T16:06:20.237Z,0.00
2022-10-19T16:08:59.225Z,0.50
2022-10-19T16:11:37.645Z,0.00
2022-10-19T16:14:14.843Z,0.00
2022-10-19T16:16:52.392Z,1.00
2022-10-19T16:19:23.782Z,1.00
2022-10-19T16:22:22.242Z,0.00
2022-10-19T16:24:58.723Z,0.00
2022-10-19T16:27:29.298Z,1.00
2022-10-19T16:30:03.358Z,1.00
2022-10-19T16:32:46.294Z,1.00
2022-10-19T16:35:18.633Z,0.50
2022-10-19T16:37:54.705Z,1.00
2022-10-19T16:40:25.617Z,1.00
2022-10-19T16:42:57.823Z,1.00
2022-10-19T16:45:33.146Z,1.00
2022-10-19T16:48:09.317Z,0.50
2022-10-19T16:50:45.273Z,1.00
2022-10-19T16:53:17.946Z,1.00
2022-10-19T16:55:52.685Z,0.25
2022-10-19T16:59:00.380Z,1.00
2022-10-19T17:01:33.336Z,1.75
2022-10-19T17:04:06.109Z,1.00
2022-10-19T17:06:52.705Z,0.25
2022-10-19T17:09:44.282Z,0.25
2022-10-19T17:13:16.258Z,0.75
2022-10-19T17:15:46.697Z,1.75
2022-10-19T17:18:26.481Z,2.00
2022-10-19T17:21:05.256Z,3.00
2022-10-19T17:23:47.369Z,1.50
2022-10-19T17:26:34.458Z,1.00
2022-10-19T17:29:22.657Z,0.25
2022-10-19T17:31:57.639Z,2.00
2022-10-19T17:34:36.724Z,0.50
2022-10-19T17:37:41.097Z,1.00
2022-10-19T17:40:11.870Z,1.00
2022-10-19T17:42:48.171Z,1.00
2022-10-19T17:45:22.156Z,1.00
2022-10-19T17:47:55.593Z,1.50
2022-10-19T17:50:35.482Z,1.00
2022-10-19T17:53:10.776Z,2.75
2022-10-19T17:55:48.303Z,2.00
2022-10-19T17:58:21.074Z,1.00
2022-10-19T18:01:01.845Z,0.00
2022-10-19T18:03:51.107Z,1.00
2022-10-19T18:06:41.311Z,1.00
2022-10-19T18:09:16.064Z,0.50
2022-10-19T18:11:49.536Z,0.50
2022-10-19T18:14:49.692Z,0.50
2022-10-19T18:17:24.010Z,0.50
2022-10-19T18:20:00.176Z,8.50
2022-10-19T18:25:21.881Z,13.00
2022-10-19T18:28:01.248Z,15.75
2022-10-19T18:30:35.403Z,17.75
2022-10-19T18:33:09.823Z,12.75
2022-10-19T18:35:47.153Z,16.50
2022-10-19T18:38:18.868Z,17.00
2022-10-19T18:40:54.767Z,18.75
2022-10-19T18:43:27.611Z,16.25
2022-10-19T18:46:08.999Z,6.75
2022-10-19T18:48:46.315Z,2.75
2022-10-19T18:51:27.577Z,1.50
2022-10-19T18:54:01.923Z,1.00
2022-10-19T18:56:41.120Z,0.75
2022-10-19T18:59:17.100Z,0.00
2022-10-19T19:01:47.432Z,0.00
2022-10-19T19:04:28.357Z,1.00
2022-10-19T19:09:47.558Z,2.00
2022-10-19T19:15:11.646Z,1.00
2022-10-19T19:17:51.252Z,2.00
2022-10-19T19:20:25.229Z,1.00
2022-10-19T19:22:57.692Z,1.00
2022-10-19T19:28:49.210Z,2.25
2022-10-19T19:31:48.344Z,1.75
2022-10-19T19:34:20.299Z,1.00
2022-10-19T19:37:29.770Z,0.00
2022-10-19T19:40:12.854Z,1.00
2022-10-19T19:42:49.210Z,1.00
2022-10-19T19:45:23.054Z,1.00
2022-10-19T19:50:58.157Z,3.00
2022-10-19T19:53:32.936Z,1.00
2022-10-19T19:56:14.906Z,1.00
2022-10-19T19:58:49.629Z,1.00
2022-10-19T20:01:43.813Z,1.00
2022-10-19T20:04:17.537Z,2.00
2022-10-19T20:06:49.066Z,1.00
2022-10-19T20:09:25.151Z,1.00
2022-10-19T20:12:02.734Z,3.00
2022-10-19T20:14:37.511Z,0.00
2022-10-19T20:17:12.444Z,2.00
2022-10-19T20:19:46.696Z,1.75
2022-10-19T20:22:18.453Z,2.25
2022-10-19T20:24:51.315Z,4.50
2022-10-19T20:27:24.135Z,5.00
2022-10-19T20:30:00.107Z,4.00
2022-10-19T20:32:31.837Z,6.25
2022-10-19T20:35:09.428Z,5.50
2022-10-19T20:37:45.102Z,4.00
2022-10-19T20:40:23.393Z,3.50
2022-10-19T20:42:58.459Z,3.50
2022-10-19T20:45:28.889Z,3.00
2022-10-19T20:48:03.255Z,2.75
2022-10-19T20:50:35.576Z,1.50
2022-10-19T20:53:09.840Z,2.00
2022-10-19T20:55:50.882Z,1.33
2022-10-19T20:58:22.506Z,0.25
2022-10-19T21:01:14.046Z,0.00
2022-10-19T21:03:59.631Z,0.33
2022-10-19T21:06:43.833Z,1.00
2022-10-19T21:09:22.612Z,0.33
2022-10-19T21:11:56.569Z,1.33
2022-10-19T21:14:32.273Z,1.67
2022-10-19T21:17:03.550Z,1.00
2022-10-19T21:19:44.875Z,2.00
2022-10-19T21:22:19.190Z,0.00
2022-10-19T21:24:54.175Z,1.00
2022-10-19T21:27:31.330Z,4.00
2022-10-19T21:30:02.661Z,2.00
2022-10-19T21:32:43.180Z,1.00
2022-10-19T21:35:36.599Z,1.00
2022-10-19T21:38:22.231Z,5.00
2022-10-19T21:41:05.468Z,1.00
2022-10-19T21:43:47.068Z,0.33
2022-10-19T21:46:35.180Z,1.00
2022-10-19T21:49:12.989Z,2.00
2022-10-19T21:51:53.827Z,1.33
2022-10-19T21:54:29.108Z,1.33
2022-10-19T21:57:29.832Z,1.67
2022-10-19T22:00:03.787Z,1.00
2022-10-19T22:02:57.654Z,1.67
2022-10-19T22:05:30.829Z,1.00
2022-10-19T22:08:08.846Z,1.00
2022-10-19T22:10:45.707Z,0.00
2022-10-19T22:13:17.863Z,1.00
2022-10-19T22:15:57.136Z,2.00
2022-10-19T22:21:28.527Z,1.33
2022-10-19T22:24:12.758Z,1.00
2022-10-19T22:26:55.656Z,3.00
2022-10-19T22:29:40.341Z,1.00
2022-10-19T22:32:14.514Z,1.00
2022-10-19T22:34:46.712Z,1.00
2022-10-19T22:37:19.570Z,1.00
2022-10-19T22:39:55.307Z,1.00
2022-10-19T22:43:22.369Z,3.00
2022-10-19T22:46:15.773Z,1.33
2022-10-19T22:48:50.617Z,1.67
2022-10-19T22:51:28.090Z,2.00
2022-10-19T22:54:01.589Z,2.00
2022-10-19T22:56:41.331Z,1.00
2022-10-19T22:59:17.343Z,2.00
2022-10-19T23:01:50.547Z,2.00
2022-10-19T23:04:24.833Z,1.33
2022-10-19T23:07:08.170Z,2.00
2022-10-19T23:12:42.309Z,0.00
2022-10-19T23:15:21.459Z,2.33
2022-10-19T23:17:55.039Z,1.00
2022-10-19T23:20:31.356Z,0.75
2022-10-19T23:23:02.290Z,2.00
2022-10-19T23:25:34.656Z,1.00
2022-10-19T23:28:08.505Z,1.00
2022-10-19T23:30:45.857Z,2.00
2022-10-19T23:33:23.971Z,2.00
2022-10-19T23:35:56.101Z,2.00
2022-10-19T23:38:28.792Z,1.00
2022-10-19T23:41:11.107Z,1.33
2022-10-19T23:43:48.458Z,2.67
2022-10-19T23:46:22.418Z,1.67
2022-10-19T23:48:59.247Z,2.00
2022-10-19T23:51:30.058Z,1.00
2022-10-19T23:54:04.569Z,2.00
2022-10-19T23:56:44.462Z,1.00
2022-10-19T23:59:22.608Z,1.33
